createdAt,value
2022-08-04T00:00:51.575Z,97301.34
2022-08-04T00:06:02.251Z,97299.25
2022-08-04T00:11:15.231Z,97298.63
2022-08-04T00:16:19.984Z,97297.63
2022-08-04T00:21:26.089Z,97292.97
2022-08-04T00:26:31.718Z,97289.44
2022-08-04T00:31:54.727Z,97287.13
2022-08-04T00:37:00.094Z,97287.19
2022-08-04T00:42:58.373Z,97289.38
2022-08-04T00:48:18.040Z,97287.19
2022-08-04T00:53:32.087Z,97290.72
2022-08-04T00:58:48.269Z,97286.91
2022-08-04T01:03:59.368Z,97286.28
2022-08-04T01:09:20.950Z,97290.94
2022-08-04T01:14:45.586Z,97288.09
2022-08-04T01:20:02.603Z,97290.44
2022-08-04T01:25:30.749Z,97291.78
2022-08-04T01:30:43.836Z,97287.44
2022-08-04T01:35:52.031Z,97285.25
2022-08-04T01:41:00.697Z,97284.44
2022-08-04T01:46:06.439Z,97276.44
2022-08-04T01:51:11.528Z,97285.75
2022-08-04T01:56:15.316Z,97289.94
2022-08-04T02:01:20.666Z,97288.09
2022-08-04T02:06:33.651Z,97285.94
2022-08-04T02:11:37.268Z,97280.09
2022-08-04T02:16:52.242Z,97283.91
2022-08-04T02:22:04.206Z,97279.25
2022-08-04T02:27:09.509Z,97276.06
2022-08-04T02:32:20.038Z,97270.41
2022-08-04T02:37:25.471Z,97259.88
2022-08-04T02:42:30.859Z,97251.53
2022-08-04T02:48:08.336Z,97260.88
2022-08-04T02:53:04.187Z,97249.50
2022-08-04T02:58:16.498Z,97248.19
2022-08-04T03:03:30.153Z,97239.81
2022-08-04T03:09:09.235Z,97244.00
2022-08-04T03:14:59.460Z,97246.16
2022-08-04T03:20:39.151Z,97242.69
2022-08-04T03:26:36.638Z,97242.31
2022-08-04T03:32:16.697Z,97246.00
2022-08-04T03:37:45.638Z,97243.31
2022-08-04T03:43:58.463Z,97250.84
2022-08-04T03:49:19.596Z,97249.50
2022-08-04T03:54:56.193Z,97249.59
2022-08-04T04:00:10.334Z,97251.00
2022-08-04T04:06:00.469Z,97246.31
2022-08-04T04:11:35.068Z,97236.81
2022-08-04T04:17:20.825Z,97233.81
2022-08-04T04:22:52.047Z,97239.50
2022-08-04T04:28:44.857Z,97227.16
2022-08-04T04:34:04.185Z,97226.00
2022-08-04T04:39:17.979Z,97230.63
2022-08-04T04:44:57.316Z,97241.31
2022-08-04T04:50:11.171Z,97241.47
2022-08-04T04:55:20.752Z,97241.13
2022-08-04T05:00:35.985Z,97241.69
2022-08-04T05:05:54.059Z,97236.19
2022-08-04T05:11:26.639Z,97237.19
2022-08-04T05:16:36.798Z,97242.56
2022-08-04T05:21:46.348Z,97238.63
2022-08-04T05:26:56.778Z,97237.06
2022-08-04T05:32:06.823Z,97235.19
2022-08-04T05:37:16.110Z,97238.78
2022-08-04T05:42:20.689Z,97241.34
2022-08-04T05:47:30.979Z,97229.38
2022-08-04T05:52:37.823Z,97232.59
2022-08-04T05:57:42.515Z,97235.34
2022-08-04T06:02:49.722Z,97236.91
2022-08-04T06:08:12.012Z,97234.97
2022-08-04T06:13:49.159Z,97233.78
2022-08-04T06:19:59.254Z,97232.19
2022-08-04T06:24:18.891Z,97224.16
2022-08-04T06:29:28.395Z,97225.56
2022-08-04T06:34:35.430Z,97222.66
2022-08-04T06:39:39.832Z,97220.53
2022-08-04T06:44:45.501Z,97219.72
2022-08-04T06:51:30.429Z,97209.63
2022-08-04T06:55:16.129Z,97213.44
2022-08-04T07:00:20.479Z,97207.66
2022-08-04T07:05:26.308Z,97214.69
2022-08-04T07:10:31.624Z,97216.00
2022-08-04T07:15:37.396Z,97217.41
2022-08-04T07:20:44.372Z,97223.44
2022-08-04T07:26:11.600Z,97210.59
2022-08-04T07:31:34.408Z,97215.03
2022-08-04T07:36:49.982Z,97216.94
2022-08-04T07:41:56.598Z,97207.13
2022-08-04T07:47:01.480Z,97215.44
2022-08-04T07:52:08.268Z,97215.91
2022-08-04T07:57:19.649Z,97216.03
2022-08-04T08:02:36.583Z,97199.25
2022-08-04T08:07:50.567Z,97203.34
2022-08-04T08:13:00.123Z,97196.28
2022-08-04T08:18:04.400Z,97190.06
2022-08-04T08:23:09.738Z,97197.13
2022-08-04T08:28:15.882Z,97187.34
2022-08-04T08:33:20.569Z,97193.34
2022-08-04T08:38:36.793Z,97192.13
2022-08-04T08:44:05.824Z,97191.47
2022-08-04T08:50:02.349Z,97196.38
2022-08-04T08:55:27.806Z,97190.19
2022-08-04T09:00:49.679Z,97183.66
2022-08-04T09:06:25.421Z,97194.59
2022-08-04T09:11:37.942Z,97189.47
2022-08-04T09:16:50.582Z,97185.94
2022-08-04T09:22:03.166Z,97184.06
2022-08-04T09:27:14.915Z,97173.91
2022-08-04T09:32:33.386Z,97184.50
2022-08-04T09:37:45.616Z,97190.41
2022-08-04T09:42:59.835Z,97187.50
2022-08-04T09:48:13.046Z,97189.94
2022-08-04T09:53:38.945Z,97183.31
2022-08-04T09:58:52.887Z,97192.84
2022-08-04T10:04:02.337Z,97171.34
2022-08-04T10:09:18.971Z,97176.66
2022-08-04T10:14:39.024Z,97169.59
2022-08-04T10:19:44.483Z,97161.66
2022-08-04T10:25:03.466Z,97171.66
2022-08-04T10:30:12.280Z,97159.66
2022-08-04T10:35:20.852Z,97162.13
2022-08-04T10:40:45.405Z,97161.25
2022-08-04T10:45:57.764Z,97160.13
2022-08-04T10:51:11.837Z,97145.66
2022-08-04T10:56:23.901Z,97147.13
2022-08-04T11:01:59.810Z,97139.47
2022-08-04T11:07:01.569Z,97141.66
2022-08-04T11:12:11.162Z,97139.75
2022-08-04T11:17:21.073Z,97137.34
2022-08-04T11:22:28.106Z,97146.78
2022-08-04T11:27:41.167Z,97147.28
2022-08-04T11:32:52.372Z,97137.16
2022-08-04T11:38:04.534Z,97145.16
2022-08-04T11:43:15.009Z,97136.50
2022-08-04T11:48:46.440Z,97141.06
2022-08-04T11:53:52.061Z,97136.34
2022-08-04T11:58:57.909Z,97134.16
2022-08-04T12:04:07.363Z,97130.75
2022-08-04T12:09:22.856Z,97121.41
2022-08-04T12:14:35.444Z,97119.91
2022-08-04T12:20:03.231Z,97116.31
2022-08-04T12:25:15.947Z,97108.34
2022-08-04T12:30:57.295Z,97107.72
2022-08-04T12:35:57.478Z,97102.28
2022-08-04T12:41:22.631Z,97108.97
2022-08-04T12:46:30.304Z,97089.94
2022-08-04T12:52:08.471Z,97092.25
2022-08-04T12:57:08.661Z,97091.34
2022-08-04T13:02:20.154Z,97087.31
2022-08-04T13:07:26.399Z,97069.78
2022-08-04T13:12:33.199Z,97083.25
2022-08-04T13:17:52.583Z,97074.59
2022-08-04T13:23:09.198Z,97067.28
2022-08-04T13:28:20.420Z,97077.38
2022-08-04T13:33:29.449Z,97067.50
2022-08-04T13:38:34.993Z,97069.91
2022-08-04T13:44:16.761Z,97063.75
2022-08-04T13:54:43.228Z,97055.41
2022-08-04T13:59:53.336Z,97036.91
2022-08-04T14:05:03.143Z,97047.72
2022-08-04T14:10:12.220Z,97044.97
2022-08-04T14:16:02.307Z,97042.28
2022-08-04T14:21:01.518Z,97038.75
2022-08-04T14:26:16.571Z,97025.56
2022-08-04T14:31:27.885Z,97028.94
2022-08-04T14:36:49.637Z,97022.38
2022-08-04T14:42:06.292Z,97017.09
2022-08-04T14:47:13.096Z,97023.38
2022-08-04T14:52:25.467Z,97014.31
2022-08-04T14:57:29.530Z,97019.63
2022-08-04T15:02:36.306Z,97008.56
2022-08-04T15:07:40.429Z,96996.75
2022-08-04T15:12:45.402Z,96995.81
2022-08-04T15:17:52.473Z,96994.81
2022-08-04T15:22:56.975Z,96992.75
2022-08-04T15:28:03.060Z,96996.19
2022-08-04T15:33:10.543Z,96993.81
2022-08-04T15:38:35.481Z,96995.69
2022-08-04T15:43:55.288Z,96996.38
2022-08-04T15:49:20.124Z,96988.22
2022-08-04T15:54:27.854Z,96975.63
2022-08-04T16:00:01.786Z,96975.13
2022-08-04T16:05:39.540Z,96976.47
2022-08-04T16:10:48.414Z,96968.03
2022-08-04T16:15:54.655Z,96967.59
2022-08-04T16:21:03.244Z,96959.72
2022-08-04T16:26:08.668Z,96954.13
2022-08-04T16:31:14.209Z,96948.31
2022-08-04T16:37:00.621Z,96939.81
2022-08-04T16:42:36.204Z,96942.22
2022-08-04T16:48:08.123Z,96947.66
2022-08-04T16:53:14.626Z,96939.09
2022-08-04T16:58:38.501Z,96941.19
2022-08-04T17:03:58.915Z,96941.19
2022-08-04T17:09:10.478Z,96942.28
2022-08-04T17:14:14.813Z,96939.94
2022-08-04T17:19:23.643Z,96926.16
2022-08-04T17:24:31.850Z,96930.78
2022-08-04T17:29:43.523Z,96930.31
2022-08-04T17:34:50.392Z,96931.94
2022-08-04T17:40:10.085Z,96931.38
2022-08-04T17:45:52.932Z,96936.28
2022-08-04T17:50:43.718Z,96937.06
2022-08-04T17:55:50.319Z,96942.69
2022-08-04T18:06:25.803Z,96938.41
2022-08-04T18:11:41.931Z,96944.63
2022-08-04T18:16:46.889Z,96944.56
2022-08-04T18:22:00.564Z,96936.78
2022-08-04T18:27:07.275Z,96935.00
2022-08-04T18:32:12.178Z,96943.00
2022-08-04T18:37:40.804Z,96934.59
2022-08-04T18:42:43.708Z,96945.13
2022-08-04T18:47:58.785Z,96959.22
2022-08-04T18:53:03.186Z,96956.38
2022-08-04T18:58:12.771Z,96959.19
2022-08-04T19:03:22.791Z,96957.94
2022-08-04T19:08:34.246Z,96953.56
2022-08-04T19:13:43.086Z,96966.47
2022-08-04T19:19:00.934Z,96977.78
2022-08-04T19:24:11.438Z,96980.22
2022-08-04T19:29:38.088Z,96987.28
2022-08-04T19:34:48.047Z,96992.97
2022-08-04T19:39:53.130Z,96994.09
2022-08-04T19:44:59.879Z,96989.38
2022-08-04T19:50:10.233Z,96993.53
2022-08-04T19:55:15.440Z,96992.75
2022-08-04T20:00:33.263Z,97001.94
2022-08-04T20:05:54.416Z,97001.06
2022-08-04T20:11:00.341Z,97002.50
2022-08-04T20:16:28.687Z,97004.78
2022-08-04T20:26:54.504Z,97003.41
2022-08-04T20:32:05.600Z,96995.69
2022-08-04T20:37:13.218Z,96992.75
2022-08-04T20:42:19.547Z,96991.25
2022-08-04T20:47:35.518Z,97005.63
2022-08-04T20:52:40.024Z,96997.94
2022-08-04T20:57:49.144Z,96998.44
2022-08-04T21:02:56.656Z,97006.88
2022-08-04T21:08:01.777Z,97010.75
2022-08-04T21:13:05.711Z,97003.50
2022-08-04T21:18:14.572Z,97000.81
2022-08-04T21:23:20.875Z,97001.91
2022-08-04T21:28:26.484Z,97001.91
2022-08-04T21:33:50.763Z,97009.59
2022-08-04T21:38:56.724Z,97002.75
2022-08-04T21:44:01.234Z,97014.56
2022-08-04T21:49:09.173Z,97018.50
2022-08-04T21:54:15.262Z,97022.50
2022-08-04T21:59:30.789Z,97032.09
2022-08-04T22:04:36.106Z,97034.34
2022-08-04T22:09:45.570Z,97046.22
2022-08-04T22:15:22.793Z,97050.09
2022-08-04T22:20:32.877Z,97041.72
2022-08-04T22:25:37.757Z,97046.66
2022-08-04T22:30:48.390Z,97052.28
2022-08-04T22:35:57.883Z,97055.13
2022-08-04T22:41:02.683Z,97055.34
2022-08-04T22:46:08.835Z,97057.81
2022-08-04T22:51:16.933Z,97058.88
2022-08-04T22:56:37.220Z,97066.72
2022-08-04T23:02:00.618Z,97074.16
2022-08-04T23:07:09.520Z,97062.81
2022-08-04T23:12:28.902Z,97064.69
2022-08-04T23:17:43.806Z,97064.50
2022-08-04T23:22:55.774Z,97058.38
2022-08-04T23:27:59.615Z,97053.25
2022-08-04T23:33:05.174Z,97044.28
2022-08-04T23:38:31.347Z,97041.16
2022-08-04T23:43:49.284Z,97038.47
2022-08-04T23:48:57.468Z,97043.69
2022-08-04T23:54:04.042Z,97033.72
2022-08-04T23:59:23.159Z,97035.97
